Wednesday, November 22, 2017, 4:12 AM EST
Back to Local

KWRI, Mcguire Air Force Base

Location: Trenton, NJ, United States Lat: 40.017
Local Time: 4:12 AM EST ( 9:12 GMT) Lon: -74.6
Time Zone: US/Eastern Elev: 134 ft

Show me the last for .
Show Decoded

2017-11-22 03:59 METAR KWRI 220859Z AUTO 21006KT 10SM FEW037 SCT045 SCT065 12/11 A2991 RMK AO2
                 RAE57DZB57E59 SLP128 $ =
2017-11-22 03:56 METAR KWRI 220856Z AUTO 22006KT 10SM -RA FEW037 SCT045 SCT055 SCT070 12/11 A2991
                 RMK AO2 SLP128 P0008 60009 T01190108 57021 $ =
2017-11-22 03:07 METAR KWRI 220807Z AUTO 00000KT 9SM -RA FEW008 FEW022 SCT035 OVC043 11/10 A2995
                 RMK AO2 SLP142 $ =
2017-11-22 02:56 METAR KWRI 220756Z AUTO 00000KT 10SM -RA OVC043 10/09 A2994 RMK AO2 RAB50 SLP138
                 P0000 T01020094 $ =
2017-11-22 02:50 METAR KWRI 220750Z AUTO 00000KT 10SM -RA BKN043 10/09 A2994 RMK AO2 RAB50 SLP138
                 $ =
2017-11-22 01:56 METAR KWRI 220656Z AUTO 21007KT 10SM BKN046 11/10 A2995 RMK AO2 RAB09E29 SLP142
                 P0001 T01120096 $ =
2017-11-22 01:29 METAR KWRI 220629Z AUTO 21007KT 10SM SCT047 BKN060 12/09 A2996 RMK AO2 RAB09E29
                 SLP145 $ =
2017-11-22 01:09 METAR KWRI 220609Z AUTO 22007KT 10SM -RA BKN047 BKN085 12/09 A2997 RMK AO2 RAB09
                 SLP149 $ =
2017-11-22 00:56 METAR KWRI 220556Z AUTO 22005KT 10SM BKN047 BKN055 12/08 A2998 RMK AO2 SLP152
                 T01210082 10121 20082 57016 $ =
2017-11-21 23:56 METAR KWRI 220456Z AUTO 19003KT 10SM SCT050 11/07 A3000 RMK AO2 SLP159 T01100071
                 401570006 $ =
2017-11-21 22:56 METAR KWRI 220356Z AUTO 00000KT 10SM OVC050 10/06 A3001 RMK AO2 SLP162 T01030061
                 $ =
2017-11-21 21:56 METAR KWRI 220256Z AUTO 25003KT 10SM CLR 08/04 A3002 RMK AO2 SLP166 T00820042
                 55002 $ =
2017-11-21 20:56 METAR KWRI 220156Z AUTO 21007KT 10SM CLR 09/05 A3002 RMK AO2 SLP166 T00930045 $
                 =
2017-11-21 19:56 METAR KWRI 220056Z AUTO 21007KT 10SM CLR 10/05 A3002 RMK AO2 SLP166 T00950047 $
                 =
2017-11-21 18:56 METAR KWRI 212356Z AUTO 21009KT 10SM CLR 11/04 A3003 RMK AO2 SLP169 T01050044
                 10148 20104 52009 $ =
2017-11-21 17:56 METAR KWRI 212256Z AUTO 21010KT 10SM CLR 11/03 A3002 RMK AO2 SLP166 T01130033 $
                 =
2017-11-21 16:56 METAR KWRI 212156Z AUTO 22009KT 10SM CLR 12/02 A3001 RMK AO2 SLP163 T01210020 $
                 =
2017-11-21 15:56 METAR KWRI 212056Z AUTO 22010KT 10SM CLR 14/01 A3000 RMK AO2 SLP159 T01360013
                 57017 $ =
2017-11-21 14:56 METAR KWRI 211956Z AUTO 20011KT 10SM CLR 14/00 A3001 RMK AO2 SLP163 T01410003 $
                 =
2017-11-21 13:56 METAR KWRI 211856Z AUTO 23012KT 10SM CLR 14/M01 A3002 RMK AO2 SLP166 T01371015 $
                 =
2017-11-21 12:56 METAR KWRI 211756Z AUTO 22015G25KT 10SM CLR 14/M01 A3005 RMK AO2 SLP176
                 T01401008 10157 20032 57020 $ =
2017-11-21 11:56 METAR KWRI 211656Z AUTO 23015KT 10SM CLR 15/M01 A3007 RMK AO2 PK WND 18027/1558
                 SLP183 T01471006 $ =
2017-11-21 10:56 METAR KWRI 211556Z AUTO 23017G23KT 10SM CLR 14/00 A3010 RMK AO2 SLP193 T01361005
                 $ =
2017-11-21 09:56 METAR KWRI 211456Z AUTO 22013G21KT 10SM CLR 11/01 A3011 RMK AO2 SLP197 T01080013
                 58003 $ =
2017-11-21 08:56 METAR KWRI 211356Z 21012G17KT 10SM CLR 08/02 A3011 RMK AO2A SLP197 T00820018 $ =
2017-11-21 07:56 METAR KWRI 211256Z AUTO 21005KT 10SM CLR 05/01 A3012 RMK AO2 SLP200 T00460013 $
                 =
2017-11-21 06:56 METAR KWRI 211156Z AUTO 19003KT 10SM CLR 03/01 A3012 RMK AO2 SLP200 T00320006
                 10038 20011 53002 $ =
2017-11-21 05:56 METAR KWRI 211056Z AUTO 22006KT 10SM CLR 04/00 A3012 RMK AO2 SLP200 T00360003 $
                 =
2017-11-21 04:56 METAR KWRI 210956Z AUTO 22005KT 10SM CLR 03/00 A3011 RMK AO2 SLP197 T00251004 $
                 =

Support USWX by starting your Amazon purchase here.